sensor_id;sensor_type;location;lat;lon;timestamp;pressure;altitude;pressure_sealevel;temperature;humidity
20424;BME280;10371;49.042;8.002;2023-02-28T00:00:42;100717.44;;;-0.90;75.81
20424;BME280;10371;49.042;8.002;2023-02-28T00:01:43;100720.81;;;-0.88;75.86
20424;BME280;10371;49.042;8.002;2023-02-28T00:02:44;100726.75;;;-0.87;75.70
20424;BME280;10371;49.042;8.002;2023-02-28T00:03:44;100718.25;;;-0.90;75.55
20424;BME280;10371;49.042;8.002;2023-02-28T00:04:45;100716.59;;;-0.91;75.33
20424;BME280;10371;49.042;8.002;2023-02-28T00:05:46;100720.88;;;-0.93;75.91
20424;BME280;10371;49.042;8.002;2023-02-28T00:06:46;100724.28;;;-0.92;75.67
20424;BME280;10371;49.042;8.002;2023-02-28T00:07:47;100720.94;;;-0.96;75.96
20424;BME280;10371;49.042;8.002;2023-02-28T00:08:48;100721.72;;;-0.92;75.68
20424;BME280;10371;49.042;8.002;2023-02-28T00:09:49;100720.03;;;-0.92;75.88
20424;BME280;10371;49.042;8.002;2023-02-28T00:10:49;100722.66;;;-0.95;75.38
20424;BME280;10371;49.042;8.002;2023-02-28T00:11:49;100730.34;;;-0.98;75.52
20424;BME280;10371;49.042;8.002;2023-02-28T00:12:51;100716.72;;;-0.98;75.86
20424;BME280;10371;49.042;8.002;2023-02-28T00:13:51;100716.84;;;-1.03;75.78
20424;BME280;10371;49.042;8.002;2023-02-28T00:14:52;100720.19;;;-1.01;76.04
20424;BME280;10371;49.042;8.002;2023-02-28T00:16:03;100720.25;;;-1.04;75.98
20424;BME280;10371;49.042;8.002;2023-02-28T00:17:04;100718.56;;;-1.05;75.95
20424;BME280;10371;49.042;8.002;2023-02-28T00:18:04;100716.84;;;-1.06;75.92
20424;BME280;10371;49.042;8.002;2023-02-28T00:19:05;100715.19;;;-1.07;75.83
20424;BME280;10371;49.042;8.002;2023-02-28T00:20:06;100716.06;;;-1.08;76.27
20424;BME280;10371;49.042;8.002;2023-02-28T00:21:10;100720.31;;;-1.07;76.35
20424;BME280;10371;49.042;8.002;2023-02-28T00:22:10;100722.84;;;-1.05;75.85
20424;BME280;10371;49.042;8.002;2023-02-28T00:23:10;100721.97;;;-1.06;75.81
20424;BME280;10371;49.042;8.002;2023-02-28T00:24:11;100716.84;;;-1.04;75.82
20424;BME280;10371;49.042;8.002;2023-02-28T00:25:13;100720.25;;;-1.04;75.79
20424;BME280;10371;49.042;8.002;2023-02-28T00:26:14;100722.78;;;-1.04;75.94
20424;BME280;10371;49.042;8.002;2023-02-28T00:27:14;100723.56;;;-0.99;75.96
20424;BME280;10371;49.042;8.002;2023-02-28T00:28:14;100721.75;;;-0.94;75.66
20424;BME280;10371;49.042;8.002;2023-02-28T00:29:15;100726.00;;;-0.93;75.98
20424;BME280;10371;49.042;8.002;2023-02-28T00:30:20;100723.44;;;-0.93;75.88
20424;BME280;10371;49.042;8.002;2023-02-28T00:31:21;100722.59;;;-0.92;76.02
20424;BME280;10371;49.042;8.002;2023-02-28T00:32:21;100723.38;;;-0.90;75.80
20424;BME280;10371;49.042;8.002;2023-02-28T00:33:21;100727.59;;;-0.87;75.72
20424;BME280;10371;49.042;8.002;2023-02-28T00:34:22;100726.69;;;-0.84;75.68
20424;BME280;10371;49.042;8.002;2023-02-28T00:35:22;100724.97;;;-0.84;75.32
20424;BME280;10371;49.042;8.002;2023-02-28T00:36:22;100722.47;;;-0.87;75.73
20424;BME280;10371;49.042;8.002;2023-02-28T00:37:22;100724.25;;;-0.91;75.57
20424;BME280;10371;49.042;8.002;2023-02-28T00:38:23;100727.69;;;-0.92;75.91
20424;BME280;10371;49.042;8.002;2023-02-28T00:39:23;100726.06;;;-0.96;75.96
20424;BME280;10371;49.042;8.002;2023-02-28T00:40:23;100726.13;;;-0.99;75.82
20424;BME280;10371;49.042;8.002;2023-02-28T00:41:24;100726.16;;;-1.02;76.27
20424;BME280;10371;49.042;8.002;2023-02-28T00:42:24;100720.31;;;-1.07;76.71
20424;BME280;10371;49.042;8.002;2023-02-28T00:43:25;100724.53;;;-1.06;76.66
20424;BME280;10371;49.042;8.002;2023-02-28T00:44:25;100723.69;;;-1.05;76.60
20424;BME280;10371;49.042;8.002;2023-02-28T00:45:26;100725.34;;;-1.02;77.03
20424;BME280;10371;49.042;8.002;2023-02-28T00:46:26;100727.06;;;-1.03;76.55
20424;BME280;10371;49.042;8.002;2023-02-28T00:47:27;100723.63;;;-1.02;76.69
20424;BME280;10371;49.042;8.002;2023-02-28T00:48:27;100718.44;;;-0.99;76.73
20424;BME280;10371;49.042;8.002;2023-02-28T00:49:28;100726.88;;;-0.94;76.10
20424;BME280;10371;49.042;8.002;2023-02-28T00:50:28;100726.03;;;-0.94;76.30
20424;BME280;10371;49.042;8.002;2023-02-28T00:51:28;100725.16;;;-0.93;76.20
20424;BME280;10371;49.042;8.002;2023-02-28T00:52:28;100727.69;;;-0.92;76.38
20424;BME280;10371;49.042;8.002;2023-02-28T00:53:29;100726.81;;;-0.92;75.79
20424;BME280;10371;49.042;8.002;2023-02-28T00:54:30;100723.50;;;-0.96;76.25
20424;BME280;10371;49.042;8.002;2023-02-28T00:55:30;100720.09;;;-0.96;76.20
20424;BME280;10371;49.042;8.002;2023-02-28T00:56:30;100726.94;;;-0.97;75.97
20424;BME280;10371;49.042;8.002;2023-02-28T00:57:30;100726.13;;;-0.99;76.01
20424;BME280;10371;49.042;8.002;2023-02-28T00:58:31;100729.44;;;-0.95;75.86
20424;BME280;10371;49.042;8.002;2023-02-28T00:59:31;100723.50;;;-0.96;75.75
20424;BME280;10371;49.042;8.002;2023-02-28T01:00:31;100721.00;;;-0.99;75.87
20424;BME280;10371;49.042;8.002;2023-02-28T01:01:32;100721.88;;;-1.00;75.81
20424;BME280;10371;49.042;8.002;2023-02-28T01:02:32;100720.19;;;-1.01;75.74
20424;BME280;10371;49.042;8.002;2023-02-28T01:03:33;100723.63;;;-1.03;76.01
20424;BME280;10371;49.042;8.002;2023-02-28T01:04:33;100726.16;;;-1.00;75.30
20424;BME280;10371;49.042;8.002;2023-02-28T01:05:33;100726.94;;;-0.97;75.67
20424;BME280;10371;49.042;8.002;2023-02-28T01:06:41;100720.03;;;-0.93;75.23
20424;BME280;10371;49.042;8.002;2023-02-28T01:07:41;100728.53;;;-0.93;75.43
20424;BME280;10371;49.042;8.002;2023-02-28T01:08:41;100724.25;;;-0.91;75.40
20424;BME280;10371;49.042;8.002;2023-02-28T01:09:42;100726.81;;;-0.91;75.40
20424;BME280;10371;49.042;8.002;2023-02-28T01:10:42;100723.28;;;-0.83;75.35
20424;BME280;10371;49.042;8.002;2023-02-28T01:11:42;100716.41;;;-0.81;74.93
20424;BME280;10371;49.042;8.002;2023-02-28T01:12:44;100723.16;;;-0.77;74.75
20424;BME280;10371;49.042;8.002;2023-02-28T01:13:45;100715.44;;;-0.74;74.67
20424;BME280;10371;49.042;8.002;2023-02-28T01:14:46;100728.22;;;-0.74;74.60
20424;BME280;10371;49.042;8.002;2023-02-28T01:15:50;100713.72;;;-0.74;74.68
20424;BME280;10371;49.042;8.002;2023-02-28T01:16:51;100723.03;;;-0.71;74.48
20424;BME280;10371;49.042;8.002;2023-02-28T01:17:51;100711.06;;;-0.69;74.29
20424;BME280;10371;49.042;8.002;2023-02-28T01:18:52;100715.31;;;-0.68;74.59
20424;BME280;10371;49.042;8.002;2023-02-28T01:19:54;100714.41;;;-0.67;74.46
20424;BME280;10371;49.042;8.002;2023-02-28T01:20:55;100721.16;;;-0.63;74.44
20424;BME280;10371;49.042;8.002;2023-02-28T01:21:55;100722.84;;;-0.62;74.49
20424;BME280;10371;49.042;8.002;2023-02-28T01:22:56;100722.84;;;-0.62;74.54
20424;BME280;10371;49.042;8.002;2023-02-28T01:23:57;100723.69;;;-0.61;74.50
20424;BME280;10371;49.042;8.002;2023-02-28T01:24:57;100716.00;;;-0.60;74.53
20424;BME280;10371;49.042;8.002;2023-02-28T01:26:06;100720.22;;;-0.59;74.27
20424;BME280;10371;49.042;8.002;2023-02-28T01:27:06;100715.09;;;-0.57;74.45
20424;BME280;10371;49.042;8.002;2023-02-28T01:28:07;100711.63;;;-0.55;74.02
20424;BME280;10371;49.042;8.002;2023-02-28T01:29:07;100713.28;;;-0.52;73.94
20424;BME280;10371;49.042;8.002;2023-02-28T01:30:08;100715.78;;;-0.51;73.96
20424;BME280;10371;49.042;8.002;2023-02-28T01:31:09;100717.44;;;-0.47;73.87
20424;BME280;10371;49.042;8.002;2023-02-28T01:32:10;100714.88;;;-0.48;73.93
20424;BME280;10371;49.042;8.002;2023-02-28T01:33:10;100716.59;;;-0.49;74.13
20424;BME280;10371;49.042;8.002;2023-02-28T01:34:10;100722.53;;;-0.47;73.82
20424;BME280;10371;49.042;8.002;2023-02-28T01:35:11;100722.47;;;-0.43;73.86
20424;BME280;10371;49.042;8.002;2023-02-28T01:36:17;100723.38;;;-0.44;73.55
20424;BME280;10371;49.042;8.002;2023-02-28T01:37:17;100715.72;;;-0.46;73.58
20424;BME280;10371;49.042;8.002;2023-02-28T01:38:18;100718.28;;;-0.48;74.04
20424;BME280;10371;49.042;8.002;2023-02-28T01:39:18;100720.00;;;-0.48;73.72
20424;BME280;10371;49.042;8.002;2023-02-28T01:40:18;100733.59;;;-0.46;73.97
20424;BME280;10371;49.042;8.002;2023-02-28T01:41:24;100718.28;;;-0.48;73.83
20424;BME280;10371;49.042;8.002;2023-02-28T01:42:25;100716.53;;;-0.46;73.87
20424;BME280;10371;49.042;8.002;2023-02-28T01:43:27;100719.16;;;-0.49;74.23
20424;BME280;10371;49.042;8.002;2023-02-28T01:45:59;100714.19;;;-0.55;74.47
20424;BME280;10371;49.042;8.002;2023-02-28T01:46:59;100716.75;;;-0.55;74.68
20424;BME280;10371;49.042;8.002;2023-02-28T01:48:02;100724.38;;;-0.53;74.66
20424;BME280;10371;49.042;8.002;2023-02-28T01:49:11;100718.53;;;-0.58;74.58
20424;BME280;10371;49.042;8.002;2023-02-28T01:50:17;100715.09;;;-0.57;74.72
20424;BME280;10371;49.042;8.002;2023-02-28T01:51:46;100716.88;;;-0.61;74.66
20424;BME280;10371;49.042;8.002;2023-02-28T01:52:52;100710.88;;;-0.61;74.85
20424;BME280;10371;49.042;8.002;2023-02-28T01:54:05;100710.13;;;-0.65;74.96
20424;BME280;10371;49.042;8.002;2023-02-28T01:55:07;100716.94;;;-0.65;75.09
20424;BME280;10371;49.042;8.002;2023-02-28T01:56:09;100708.47;;;-0.68;75.15
20424;BME280;10371;49.042;8.002;2023-02-28T01:57:16;100707.63;;;-0.68;74.82
20424;BME280;10371;49.042;8.002;2023-02-28T01:58:22;100709.38;;;-0.70;75.29
20424;BME280;10371;49.042;8.002;2023-02-28T01:59:33;100707.75;;;-0.74;75.08
20424;BME280;10371;49.042;8.002;2023-02-28T02:00:35;100715.44;;;-0.74;75.19
20424;BME280;10371;49.042;8.002;2023-02-28T02:01:35;100710.38;;;-0.77;75.26
20424;BME280;10371;49.042;8.002;2023-02-28T02:02:37;100708.72;;;-0.80;75.43
20424;BME280;10371;49.042;8.002;2023-02-28T02:03:37;100704.50;;;-0.82;75.39
20424;BME280;10371;49.042;8.002;2023-02-28T02:04:46;100702.88;;;-0.86;75.56
20424;BME280;10371;49.042;8.002;2023-02-28T02:05:50;100708.91;;;-0.91;75.69
20424;BME280;10371;49.042;8.002;2023-02-28T02:06:50;100704.69;;;-0.92;76.28
20424;BME280;10371;49.042;8.002;2023-02-28T02:07:54;100710.66;;;-0.93;76.02
20424;BME280;10371;49.042;8.002;2023-02-28T02:08:54;100719.16;;;-0.92;76.22
20424;BME280;10371;49.042;8.002;2023-02-28T02:10:13;100717.56;;;-0.98;76.60
20424;BME280;10371;49.042;8.002;2023-02-28T02:11:19;100714.16;;;-0.98;76.58
20424;BME280;10371;49.042;8.002;2023-02-28T02:14:24;100712.56;;;-1.04;76.77
20424;BME280;10371;49.042;8.002;2023-02-28T02:15:34;100704.91;;;-1.04;76.76
20424;BME280;10371;49.042;8.002;2023-02-28T02:17:59;100709.25;;;-1.09;77.23
20424;BME280;10371;49.042;8.002;2023-02-28T02:26:24;100708.72;;;-1.26;77.97
20424;BME280;10371;49.042;8.002;2023-02-28T02:35:15;100708.91;;;-1.36;79.07
20424;BME280;10371;49.042;8.002;2023-02-28T02:36:24;100705.47;;;-1.35;79.15
20424;BME280;10371;49.042;8.002;2023-02-28T02:37:47;100700.34;;;-1.35;79.07
20424;BME280;10371;49.042;8.002;2023-02-28T02:38:57;100705.50;;;-1.36;79.03
20424;BME280;10371;49.042;8.002;2023-02-28T02:43:01;100705.50;;;-1.38;79.12
20424;BME280;10371;49.042;8.002;2023-02-28T02:44:13;100696.97;;;-1.35;79.34
20424;BME280;10371;49.042;8.002;2023-02-28T02:45:21;100695.28;;;-1.36;79.60
20424;BME280;10371;49.042;8.002;2023-02-28T02:46:29;100696.06;;;-1.34;79.37
20424;BME280;10371;49.042;8.002;2023-02-28T02:47:32;100697.84;;;-1.36;79.40
20424;BME280;10371;49.042;8.002;2023-02-28T02:48:35;100696.19;;;-1.39;79.40
20424;BME280;10371;49.042;8.002;2023-02-28T02:49:42;100700.41;;;-1.38;79.53
20424;BME280;10371;49.042;8.002;2023-02-28T02:50:46;100705.50;;;-1.38;79.73
20424;BME280;10371;49.042;8.002;2023-02-28T02:51:49;100698.69;;;-1.37;79.43
20424;BME280;10371;49.042;8.002;2023-02-28T02:52:54;100693.63;;;-1.39;79.82
20424;BME280;10371;49.042;8.002;2023-02-28T02:54:24;100699.53;;;-1.37;79.46
20424;BME280;10371;49.042;8.002;2023-02-28T02:55:31;100703.78;;;-1.37;79.42
20424;BME280;10371;49.042;8.002;2023-02-28T02:56:33;100692.78;;;-1.39;79.67
20424;BME280;10371;49.042;8.002;2023-02-28T02:57:56;100697.06;;;-1.41;79.63
20424;BME280;10371;49.042;8.002;2023-02-28T02:59:02;100695.38;;;-1.42;79.55
20424;BME280;10371;49.042;8.002;2023-02-28T03:00:06;100696.25;;;-1.43;80.01
20424;BME280;10371;49.042;8.002;2023-02-28T03:01:14;100706.50;;;-1.45;79.65
20424;BME280;10371;49.042;8.002;2023-02-28T03:02:17;100698.84;;;-1.45;79.92
20424;BME280;10371;49.042;8.002;2023-02-28T03:03:18;100704.81;;;-1.46;79.71
20424;BME280;10371;49.042;8.002;2023-02-28T03:04:22;100697.97;;;-1.45;80.05
20424;BME280;10371;49.042;8.002;2023-02-28T03:05:30;100703.09;;;-1.45;79.73
20424;BME280;10371;49.042;8.002;2023-02-28T03:06:34;100699.75;;;-1.49;79.92
20424;BME280;10371;49.042;8.002;2023-02-28T03:07:35;100692.94;;;-1.48;79.96
20424;BME280;10371;49.042;8.002;2023-02-28T03:08:37;100695.53;;;-1.50;80.11
20424;BME280;10371;49.042;8.002;2023-02-28T03:09:38;100696.31;;;-1.48;80.25
20424;BME280;10371;49.042;8.002;2023-02-28T03:10:43;100690.41;;;-1.50;79.93
20424;BME280;10371;49.042;8.002;2023-02-28T03:11:44;100695.53;;;-1.50;79.93
20424;BME280;10371;49.042;8.002;2023-02-28T03:12:51;100700.63;;;-1.50;80.23
20424;BME280;10371;49.042;8.002;2023-02-28T03:15:27;100693.88;;;-1.54;80.20
20424;BME280;10371;49.042;8.002;2023-02-28T03:16:35;100704.09;;;-1.54;80.20
20424;BME280;10371;49.042;8.002;2023-02-28T03:18:01;100695.56;;;-1.53;80.35
20424;BME280;10371;49.042;8.002;2023-02-28T03:19:21;100692.19;;;-1.55;80.19
20424;BME280;10371;49.042;8.002;2023-02-28T03:23:13;100694.81;;;-1.60;80.77
20424;BME280;10371;49.042;8.002;2023-02-28T03:26:52;100695.72;;;-1.62;80.98
20424;BME280;10371;49.042;8.002;2023-02-28T03:29:21;100693.19;;;-1.64;80.73
20424;BME280;10371;49.042;8.002;2023-02-28T03:30:39;100691.50;;;-1.65;80.92
20424;BME280;10371;49.042;8.002;2023-02-28T03:31:45;100697.47;;;-1.66;80.83
20424;BME280;10371;49.042;8.002;2023-02-28T03:35:10;100689.94;;;-1.72;81.34
20424;BME280;10371;49.042;8.002;2023-02-28T03:36:17;100696.72;;;-1.71;81.42
20424;BME280;10371;49.042;8.002;2023-02-28T03:37:22;100686.59;;;-1.75;81.39
20424;BME280;10371;49.042;8.002;2023-02-28T03:38:29;100691.69;;;-1.75;81.72
20424;BME280;10371;49.042;8.002;2023-02-28T03:39:39;100687.44;;;-1.76;81.52
20424;BME280;10371;49.042;8.002;2023-02-28T03:40:49;100684.94;;;-1.78;81.64
20424;BME280;10371;49.042;8.002;2023-02-28T03:41:59;100684.97;;;-1.81;81.81
20424;BME280;10371;49.042;8.002;2023-02-28T03:43:08;100684.09;;;-1.80;81.94
20424;BME280;10371;49.042;8.002;2023-02-28T03:44:19;100684.06;;;-1.78;82.07
20424;BME280;10371;49.042;8.002;2023-02-28T03:45:25;100687.44;;;-1.76;81.97
20424;BME280;10371;49.042;8.002;2023-02-28T03:46:29;100683.22;;;-1.77;82.20
20424;BME280;10371;49.042;8.002;2023-02-28T03:47:57;100687.44;;;-1.76;81.97
20424;BME280;10371;49.042;8.002;2023-02-28T03:49:03;100678.13;;;-1.79;82.23
20424;BME280;10371;49.042;8.002;2023-02-28T03:50:15;100682.34;;;-1.76;81.90
20424;BME280;10371;49.042;8.002;2023-02-28T03:51:19;100677.19;;;-1.73;82.21
20424;BME280;10371;49.042;8.002;2023-02-28T03:52:24;100685.72;;;-1.74;82.15
20424;BME280;10371;49.042;8.002;2023-02-28T03:53:29;100680.59;;;-1.74;82.17
20424;BME280;10371;49.042;8.002;2023-02-28T03:54:33;100680.56;;;-1.71;81.97
20424;BME280;10371;49.042;8.002;2023-02-28T03:55:40;100681.38;;;-1.71;82.02
20424;BME280;10371;49.042;8.002;2023-02-28T03:56:59;100677.94;;;-1.67;82.21
20424;BME280;10371;49.042;8.002;2023-02-28T03:59:37;100676.94;;;-1.58;81.74
20424;BME280;10371;49.042;8.002;2023-02-28T04:00:49;100692.25;;;-1.58;81.60
20424;BME280;10371;49.042;8.002;2023-02-28T04:01:53;100687.88;;;-1.51;81.74
20424;BME280;10371;49.042;8.002;2023-02-28T04:02:53;100684.47;;;-1.50;81.37
20424;BME280;10371;49.042;8.002;2023-02-28T04:03:54;100687.81;;;-1.48;81.56
20424;BME280;10371;49.042;8.002;2023-02-28T04:04:55;100685.25;;;-1.47;81.38
20424;BME280;10371;49.042;8.002;2023-02-28T04:05:56;100680.97;;;-1.46;81.40
20424;BME280;10371;49.042;8.002;2023-02-28T04:07:03;100685.19;;;-1.44;81.40
20424;BME280;10371;49.042;8.002;2023-02-28T04:08:08;100683.53;;;-1.45;81.50
20424;BME280;10371;49.042;8.002;2023-02-28T04:09:11;100687.72;;;-1.42;81.32
20424;BME280;10371;49.042;8.002;2023-02-28T04:10:11;100683.47;;;-1.42;81.18
20424;BME280;10371;49.042;8.002;2023-02-28T04:12:35;100688.53;;;-1.39;81.34
20424;BME280;10371;49.042;8.002;2023-02-28T04:13:35;100688.53;;;-1.39;81.24
20424;BME280;10371;49.042;8.002;2023-02-28T04:14:35;100685.09;;;-1.38;81.23
20424;BME280;10371;49.042;8.002;2023-02-28T04:15:36;100686.75;;;-1.37;81.14
20424;BME280;10371;49.042;8.002;2023-02-28T04:16:39;100684.19;;;-1.33;80.91
20424;BME280;10371;49.042;8.002;2023-02-28T04:17:40;100688.41;;;-1.32;81.08
20424;BME280;10371;49.042;8.002;2023-02-28T04:18:41;100680.75;;;-1.34;81.29
20424;BME280;10371;49.042;8.002;2023-02-28T04:19:43;100688.41;;;-1.32;80.72
20424;BME280;10371;49.042;8.002;2023-02-28T04:20:43;100691.84;;;-1.33;81.15
20424;BME280;10371;49.042;8.002;2023-02-28T04:21:46;100687.53;;;-1.31;81.07
20424;BME280;10371;49.042;8.002;2023-02-28T04:22:46;100685.84;;;-1.31;81.14
20424;BME280;10371;49.042;8.002;2023-02-28T04:23:46;100684.13;;;-1.30;81.13
20424;BME280;10371;49.042;8.002;2023-02-28T04:24:47;100688.28;;;-1.26;81.16
20424;BME280;10371;49.042;8.002;2023-02-28T04:25:47;100690.81;;;-1.25;81.10
20424;BME280;10371;49.042;8.002;2023-02-28T04:26:50;100690.00;;;-1.25;80.75
20424;BME280;10371;49.042;8.002;2023-02-28T04:27:50;100692.50;;;-1.22;80.93
20424;BME280;10371;49.042;8.002;2023-02-28T04:28:51;100683.09;;;-1.22;80.62
20424;BME280;10371;49.042;8.002;2023-02-28T04:29:51;100689.06;;;-1.21;80.87
20424;BME280;10371;49.042;8.002;2023-02-28T04:30:59;100686.50;;;-1.21;80.43
20424;BME280;10371;49.042;8.002;2023-02-28T04:32:00;100681.38;;;-1.21;80.64
20424;BME280;10371;49.042;8.002;2023-02-28T04:33:01;100679.72;;;-1.22;80.79
20424;BME280;10371;49.042;8.002;2023-02-28T04:34:02;100694.09;;;-1.18;80.70
20424;BME280;10371;49.042;8.002;2023-02-28T04:35:03;100688.94;;;-1.15;80.50
20424;BME280;10371;49.042;8.002;2023-02-28T04:36:06;100691.53;;;-1.17;80.51
20424;BME280;10371;49.042;8.002;2023-02-28T04:37:07;100679.59;;;-1.16;80.30
20424;BME280;10371;49.042;8.002;2023-02-28T04:38:07;100683.00;;;-1.17;80.46
20424;BME280;10371;49.042;8.002;2023-02-28T04:39:08;100689.88;;;-1.19;80.59
20424;BME280;10371;49.042;8.002;2023-02-28T04:40:10;100681.34;;;-1.18;80.48
20424;BME280;10371;49.042;8.002;2023-02-28T04:41:11;100682.22;;;-1.19;80.51
20424;BME280;10371;49.042;8.002;2023-02-28T04:42:12;100684.75;;;-1.19;80.51
20424;BME280;10371;49.042;8.002;2023-02-28T04:43:13;100693.28;;;-1.20;80.56
20424;BME280;10371;49.042;8.002;2023-02-28T04:44:14;100690.72;;;-1.20;80.44
20424;BME280;10371;49.042;8.002;2023-02-28T04:45:14;100677.94;;;-1.20;80.27
20424;BME280;10371;49.042;8.002;2023-02-28T04:46:14;100685.59;;;-1.19;80.63
20424;BME280;10371;49.042;8.002;2023-02-28T04:47:15;100686.47;;;-1.20;80.54
20424;BME280;10371;49.042;8.002;2023-02-28T04:48:15;100684.78;;;-1.21;80.58
20424;BME280;10371;49.042;8.002;2023-02-28T04:49:16;100687.38;;;-1.22;80.99
20424;BME280;10371;49.042;8.002;2023-02-28T04:50:16;100674.59;;;-1.22;80.71
20424;BME280;10371;49.042;8.002;2023-02-28T04:51:18;100689.06;;;-1.21;80.51
20424;BME280;10371;49.042;8.002;2023-02-28T04:52:18;100689.06;;;-1.21;80.27
20424;BME280;10371;49.042;8.002;2023-02-28T04:53:19;100695.84;;;-1.20;80.23
20424;BME280;10371;49.042;8.002;2023-02-28T04:54:20;100691.59;;;-1.20;80.47
20424;BME280;10371;49.042;8.002;2023-02-28T04:55:20;100679.66;;;-1.19;80.15
20424;BME280;10371;49.042;8.002;2023-02-28T04:56:21;100677.09;;;-1.19;80.27
20424;BME280;10371;49.042;8.002;2023-02-28T04:57:21;100687.34;;;-1.21;80.06
20424;BME280;10371;49.042;8.002;2023-02-28T04:58:22;100687.34;;;-1.21;80.54
20424;BME280;10371;49.042;8.002;2023-02-28T04:59:23;100679.72;;;-1.22;80.66
20424;BME280;10371;49.042;8.002;2023-02-28T05:00:24;100690.78;;;-1.22;80.33
20424;BME280;10371;49.042;8.002;2023-02-28T05:01:27;100686.50;;;-1.21;80.49
20424;BME280;10371;49.042;8.002;2023-02-28T05:02:28;100695.94;;;-1.25;80.84
20424;BME280;10371;49.042;8.002;2023-02-28T05:03:28;100705.25;;;-1.22;80.46
20424;BME280;10371;49.042;8.002;2023-02-28T05:04:29;100693.34;;;-1.23;80.71
20424;BME280;10371;49.042;8.002;2023-02-28T05:05:29;100693.31;;;-1.22;80.76
20424;BME280;10371;49.042;8.002;2023-02-28T05:06:31;100704.38;;;-1.21;81.03
20424;BME280;10371;49.042;8.002;2023-02-28T05:07:32;100696.72;;;-1.21;80.89
20424;BME280;10371;49.042;8.002;2023-02-28T05:08:32;100698.38;;;-1.20;80.79
20424;BME280;10371;49.042;8.002;2023-02-28T05:09:33;100701.81;;;-1.21;80.29
20424;BME280;10371;49.042;8.002;2023-02-28T05:10:33;100694.16;;;-1.21;80.28
20424;BME280;10371;49.042;8.002;2023-02-28T05:11:34;100700.09;;;-1.19;80.55
20424;BME280;10371;49.042;8.002;2023-02-28T05:12:35;100695.81;;;-1.19;80.25
20424;BME280;10371;49.042;8.002;2023-02-28T05:13:35;100694.19;;;-1.23;80.54
20424;BME280;10371;49.042;8.002;2023-02-28T05:14:35;100698.44;;;-1.22;80.33
20424;BME280;10371;49.042;8.002;2023-02-28T05:15:36;100695.88;;;-1.22;80.70
20424;BME280;10371;49.042;8.002;2023-02-28T05:16:36;100697.59;;;-1.22;80.56
20424;BME280;10371;49.042;8.002;2023-02-28T05:17:37;100694.19;;;-1.23;80.54
20424;BME280;10371;49.042;8.002;2023-02-28T05:18:37;100699.28;;;-1.21;80.50
20424;BME280;10371;49.042;8.002;2023-02-28T05:19:38;100695.94;;;-1.25;80.74
20424;BME280;10371;49.042;8.002;2023-02-28T05:20:38;100700.09;;;-1.19;80.40
20424;BME280;10371;49.042;8.002;2023-02-28T05:21:51;100701.75;;;-1.17;80.64
20424;BME280;10371;49.042;8.002;2023-02-28T05:22:52;100704.06;;;-1.04;80.39
20424;BME280;10371;49.042;8.002;2023-02-28T05:23:53;100700.59;;;-1.00;80.39
20424;BME280;10371;49.042;8.002;2023-02-28T05:24:53;100693.84;;;-1.04;80.01
20424;BME280;10371;49.042;8.002;2023-02-28T05:25:54;100705.03;;;-1.10;80.08
20424;BME280;10371;49.042;8.002;2023-02-28T05:26:54;100699.97;;;-1.13;80.08
20424;BME280;10371;49.042;8.002;2023-02-28T05:27:55;100705.91;;;-1.11;80.37
20424;BME280;10371;49.042;8.002;2023-02-28T05:28:55;100704.25;;;-1.15;80.24
20424;BME280;10371;49.042;8.002;2023-02-28T05:29:56;100708.53;;;-1.14;80.39
20424;BME280;10371;49.042;8.002;2023-02-28T05:30:56;100705.16;;;-1.16;80.66
20424;BME280;10371;49.042;8.002;2023-02-28T05:31:56;100707.72;;;-1.18;80.63
20424;BME280;10371;49.042;8.002;2023-02-28T05:32:57;100709.44;;;-1.18;80.62
20424;BME280;10371;49.042;8.002;2023-02-28T05:33:58;100706.94;;;-1.21;80.35
20424;BME280;10371;49.042;8.002;2023-02-28T05:34:58;100702.72;;;-1.24;80.50
20424;BME280;10371;49.042;8.002;2023-02-28T05:35:58;100701.91;;;-1.26;80.76
20424;BME280;10371;49.042;8.002;2023-02-28T05:36:58;100712.06;;;-1.23;80.98
20424;BME280;10371;49.042;8.002;2023-02-28T05:37:59;100702.72;;;-1.24;80.62
20424;BME280;10371;49.042;8.002;2023-02-28T05:38:59;100710.38;;;-1.22;80.95
20424;BME280;10371;49.042;8.002;2023-02-28T05:39:59;100710.31;;;-1.19;80.83
20424;BME280;10371;49.042;8.002;2023-02-28T05:41:00;100704.38;;;-1.21;80.77
20424;BME280;10371;49.042;8.002;2023-02-28T05:42:00;100712.03;;;-1.20;80.54
20424;BME280;10371;49.042;8.002;2023-02-28T05:43:00;100705.25;;;-1.22;80.51
20424;BME280;10371;49.042;8.002;2023-02-28T05:44:00;100711.25;;;-1.25;80.58
20424;BME280;10371;49.042;8.002;2023-02-28T05:45:01;100707.81;;;-1.24;80.71
20424;BME280;10371;49.042;8.002;2023-02-28T05:46:03;100702.78;;;-1.27;80.71
20424;BME280;10371;49.042;8.002;2023-02-28T05:47:03;100704.44;;;-1.26;81.19
20424;BME280;10371;49.042;8.002;2023-02-28T05:48:04;100705.34;;;-1.28;80.96
20424;BME280;10371;49.042;8.002;2023-02-28T05:49:04;100710.44;;;-1.27;80.80
20424;BME280;10371;49.042;8.002;2023-02-28T05:50:05;100713.88;;;-1.29;81.13
20424;BME280;10371;49.042;8.002;2023-02-28T05:51:06;100711.31;;;-1.28;81.21
20424;BME280;10371;49.042;8.002;2023-02-28T05:52:07;100714.72;;;-1.29;81.01
20424;BME280;10371;49.042;8.002;2023-02-28T05:53:08;100703.72;;;-1.32;81.15
20424;BME280;10371;49.042;8.002;2023-02-28T05:54:08;100714.78;;;-1.32;81.33
20424;BME280;10371;49.042;8.002;2023-02-28T05:55:08;100716.50;;;-1.34;81.52
20424;BME280;10371;49.042;8.002;2023-02-28T05:56:09;100711.41;;;-1.32;81.45
20424;BME280;10371;49.042;8.002;2023-02-28T05:57:10;100710.56;;;-1.35;81.68
20424;BME280;10371;49.042;8.002;2023-02-28T05:58:10;100711.41;;;-1.34;81.40
20424;BME280;10371;49.042;8.002;2023-02-28T05:59:11;100713.13;;;-1.35;81.72
20424;BME280;10371;49.042;8.002;2023-02-28T06:00:11;100704.63;;;-1.35;81.90
20424;BME280;10371;49.042;8.002;2023-02-28T06:01:35;100709.72;;;-1.35;81.68
20424;BME280;10371;49.042;8.002;2023-02-28T06:02:36;100709.72;;;-1.33;81.46
20424;BME280;10371;49.042;8.002;2023-02-28T06:03:36;100704.56;;;-1.32;81.71
20424;BME280;10371;49.042;8.002;2023-02-28T06:04:36;100704.56;;;-1.32;81.43
20424;BME280;10371;49.042;8.002;2023-02-28T06:05:36;100707.16;;;-1.33;81.32